sensor_id;sensor_type;location;lat;lon;timestamp;temperature;humidity
18291;DHT22;9271;48.590;8.866;2022-07-01T00:00:31;17.30;99.90
18291;DHT22;9271;48.590;8.866;2022-07-01T00:02:59;17.30;99.90
18291;DHT22;9271;48.590;8.866;2022-07-01T00:05:26;17.40;99.90
18291;DHT22;9271;48.590;8.866;2022-07-01T00:07:53;17.50;99.90
18291;DHT22;9271;48.590;8.866;2022-07-01T00:10:20;17.30;99.90
18291;DHT22;9271;48.590;8.866;2022-07-01T00:12:46;17.40;99.90
18291;DHT22;9271;48.590;8.866;2022-07-01T00:15:13;17.20;99.90
18291;DHT22;9271;48.590;8.866;2022-07-01T00:17:40;17.20;99.90
18291;DHT22;9271;48.590;8.866;2022-07-01T00:20:11;17.30;99.90
18291;DHT22;9271;48.590;8.866;2022-07-01T00:22:37;17.40;99.90
18291;DHT22;9271;48.590;8.866;2022-07-01T00:25:05;17.50;99.90
18291;DHT22;9271;48.590;8.866;2022-07-01T00:27:32;17.40;99.90
18291;DHT22;9271;48.590;8.866;2022-07-01T00:30:01;17.40;99.90
18291;DHT22;9271;48.590;8.866;2022-07-01T00:32:27;17.30;99.90
18291;DHT22;9271;48.590;8.866;2022-07-01T00:34:54;17.20;99.90
18291;DHT22;9271;48.590;8.866;2022-07-01T00:37:22;17.20;99.90
18291;DHT22;9271;48.590;8.866;2022-07-01T00:39:49;17.30;99.90
18291;DHT22;9271;48.590;8.866;2022-07-01T00:42:15;17.30;99.90
18291;DHT22;9271;48.590;8.866;2022-07-01T00:44:42;17.30;99.90
18291;DHT22;9271;48.590;8.866;2022-07-01T00:47:11;17.40;99.90
18291;DHT22;9271;48.590;8.866;2022-07-01T00:49:39;17.40;99.90
18291;DHT22;9271;48.590;8.866;2022-07-01T00:52:08;17.50;99.90
18291;DHT22;9271;48.590;8.866;2022-07-01T00:54:38;17.50;99.90
18291;DHT22;9271;48.590;8.866;2022-07-01T00:57:07;17.50;99.90
18291;DHT22;9271;48.590;8.866;2022-07-01T00:59:34;17.50;99.90
18291;DHT22;9271;48.590;8.866;2022-07-01T01:02:01;17.40;99.90
18291;DHT22;9271;48.590;8.866;2022-07-01T01:04:28;17.40;99.90
18291;DHT22;9271;48.590;8.866;2022-07-01T01:06:55;17.30;99.90
18291;DHT22;9271;48.590;8.866;2022-07-01T01:09:22;17.30;99.90
18291;DHT22;9271;48.590;8.866;2022-07-01T01:11:50;17.30;99.90
18291;DHT22;9271;48.590;8.866;2022-07-01T01:14:17;17.30;99.90
18291;DHT22;9271;48.590;8.866;2022-07-01T01:16:43;17.30;99.90
18291;DHT22;9271;48.590;8.866;2022-07-01T01:19:10;17.30;99.90
18291;DHT22;9271;48.590;8.866;2022-07-01T01:21:38;17.40;99.90
18291;DHT22;9271;48.590;8.866;2022-07-01T01:24:07;17.40;99.90
18291;DHT22;9271;48.590;8.866;2022-07-01T01:26:35;17.40;99.90
18291;DHT22;9271;48.590;8.866;2022-07-01T01:29:04;17.30;99.90
18291;DHT22;9271;48.590;8.866;2022-07-01T01:31:32;17.30;99.90
18291;DHT22;9271;48.590;8.866;2022-07-01T01:33:59;17.20;99.90
18291;DHT22;9271;48.590;8.866;2022-07-01T01:36:26;17.30;99.90
18291;DHT22;9271;48.590;8.866;2022-07-01T01:38:54;17.40;99.90
18291;DHT22;9271;48.590;8.866;2022-07-01T01:41:22;17.50;99.90
18291;DHT22;9271;48.590;8.866;2022-07-01T01:43:49;17.60;99.90
18291;DHT22;9271;48.590;8.866;2022-07-01T01:46:15;17.50;99.90
18291;DHT22;9271;48.590;8.866;2022-07-01T01:48:42;17.40;99.90
18291;DHT22;9271;48.590;8.866;2022-07-01T01:51:09;17.40;99.90
18291;DHT22;9271;48.590;8.866;2022-07-01T01:53:36;17.40;99.90
18291;DHT22;9271;48.590;8.866;2022-07-01T01:56:04;17.40;99.90
18291;DHT22;9271;48.590;8.866;2022-07-01T01:58:31;17.40;99.90
18291;DHT22;9271;48.590;8.866;2022-07-01T02:00:58;17.40;99.90
18291;DHT22;9271;48.590;8.866;2022-07-01T02:03:25;17.40;99.90
18291;DHT22;9271;48.590;8.866;2022-07-01T02:05:52;17.30;99.90
18291;DHT22;9271;48.590;8.866;2022-07-01T02:08:18;17.20;99.90
18291;DHT22;9271;48.590;8.866;2022-07-01T02:10:45;17.20;99.90
18291;DHT22;9271;48.590;8.866;2022-07-01T02:13:14;17.10;99.90
18291;DHT22;9271;48.590;8.866;2022-07-01T02:15:40;17.10;99.90
18291;DHT22;9271;48.590;8.866;2022-07-01T02:18:07;17.10;99.90
18291;DHT22;9271;48.590;8.866;2022-07-01T02:20:34;17.00;99.90
18291;DHT22;9271;48.590;8.866;2022-07-01T02:23:01;17.00;99.90
18291;DHT22;9271;48.590;8.866;2022-07-01T02:25:28;17.10;99.90
18291;DHT22;9271;48.590;8.866;2022-07-01T02:27:55;17.20;99.90
18291;DHT22;9271;48.590;8.866;2022-07-01T02:30:25;17.20;99.90
18291;DHT22;9271;48.590;8.866;2022-07-01T02:32:51;17.00;99.90
18291;DHT22;9271;48.590;8.866;2022-07-01T02:35:18;16.90;99.90
18291;DHT22;9271;48.590;8.866;2022-07-01T02:37:45;17.10;99.90
18291;DHT22;9271;48.590;8.866;2022-07-01T02:40:12;17.10;99.90
18291;DHT22;9271;48.590;8.866;2022-07-01T02:42:39;17.10;99.90
18291;DHT22;9271;48.590;8.866;2022-07-01T02:45:07;17.00;99.90
18291;DHT22;9271;48.590;8.866;2022-07-01T02:47:37;16.90;99.90
18291;DHT22;9271;48.590;8.866;2022-07-01T02:50:04;16.90;99.90
18291;DHT22;9271;48.590;8.866;2022-07-01T02:52:32;16.80;99.90
18291;DHT22;9271;48.590;8.866;2022-07-01T02:55:00;16.80;99.90
18291;DHT22;9271;48.590;8.866;2022-07-01T02:57:27;16.80;99.90
18291;DHT22;9271;48.590;8.866;2022-07-01T02:59:53;17.00;99.90
18291;DHT22;9271;48.590;8.866;2022-07-01T03:02:20;17.00;99.90
18291;DHT22;9271;48.590;8.866;2022-07-01T03:04:50;17.00;99.90
18291;DHT22;9271;48.590;8.866;2022-07-01T03:07:17;16.90;99.90
18291;DHT22;9271;48.590;8.866;2022-07-01T03:09:45;17.10;99.90
18291;DHT22;9271;48.590;8.866;2022-07-01T03:12:12;17.00;99.90
18291;DHT22;9271;48.590;8.866;2022-07-01T03:14:53;16.80;99.90
18291;DHT22;9271;48.590;8.866;2022-07-01T03:17:20;16.90;99.90
18291;DHT22;9271;48.590;8.866;2022-07-01T03:19:49;16.90;99.90
18291;DHT22;9271;48.590;8.866;2022-07-01T03:22:17;16.40;99.90
18291;DHT22;9271;48.590;8.866;2022-07-01T03:24:44;16.20;99.90
18291;DHT22;9271;48.590;8.866;2022-07-01T03:27:11;16.40;99.90
18291;DHT22;9271;48.590;8.866;2022-07-01T03:29:38;16.60;99.90
18291;DHT22;9271;48.590;8.866;2022-07-01T03:32:05;16.70;99.90
18291;DHT22;9271;48.590;8.866;2022-07-01T03:34:32;16.80;99.90
18291;DHT22;9271;48.590;8.866;2022-07-01T03:37:00;16.70;99.90
18291;DHT22;9271;48.590;8.866;2022-07-01T03:39:27;16.60;99.90
18291;DHT22;9271;48.590;8.866;2022-07-01T03:41:54;16.60;99.90
18291;DHT22;9271;48.590;8.866;2022-07-01T03:44:21;16.10;99.90
18291;DHT22;9271;48.590;8.866;2022-07-01T03:46:48;16.20;99.90
18291;DHT22;9271;48.590;8.866;2022-07-01T03:49:14;16.30;99.90
18291;DHT22;9271;48.590;8.866;2022-07-01T03:51:41;16.30;99.90
18291;DHT22;9271;48.590;8.866;2022-07-01T03:54:09;16.50;99.90
18291;DHT22;9271;48.590;8.866;2022-07-01T03:56:54;16.30;99.90
18291;DHT22;9271;48.590;8.866;2022-07-01T03:59:20;16.10;99.90
18291;DHT22;9271;48.590;8.866;2022-07-01T04:01:47;16.20;99.90
18291;DHT22;9271;48.590;8.866;2022-07-01T04:04:14;16.20;99.90
18291;DHT22;9271;48.590;8.866;2022-07-01T04:06:41;16.40;99.90
18291;DHT22;9271;48.590;8.866;2022-07-01T04:09:11;16.40;99.90
18291;DHT22;9271;48.590;8.866;2022-07-01T04:11:40;16.60;99.90
18291;DHT22;9271;48.590;8.866;2022-07-01T04:14:07;16.80;99.90
18291;DHT22;9271;48.590;8.866;2022-07-01T04:16:34;16.90;99.90
18291;DHT22;9271;48.590;8.866;2022-07-01T04:19:02;16.90;99.90
18291;DHT22;9271;48.590;8.866;2022-07-01T04:21:29;16.90;99.90
18291;DHT22;9271;48.590;8.866;2022-07-01T04:24:14;17.10;99.90
18291;DHT22;9271;48.590;8.866;2022-07-01T04:26:41;17.10;99.90
18291;DHT22;9271;48.590;8.866;2022-07-01T04:29:09;17.10;99.90
18291;DHT22;9271;48.590;8.866;2022-07-01T04:31:36;17.10;99.90
18291;DHT22;9271;48.590;8.866;2022-07-01T04:34:03;16.90;99.90
18291;DHT22;9271;48.590;8.866;2022-07-01T04:36:30;16.90;99.90
18291;DHT22;9271;48.590;8.866;2022-07-01T04:38:57;16.90;99.90
18291;DHT22;9271;48.590;8.866;2022-07-01T04:41:25;16.90;99.90
18291;DHT22;9271;48.590;8.866;2022-07-01T04:44:10;16.90;99.90
18291;DHT22;9271;48.590;8.866;2022-07-01T04:46:37;16.90;99.90
18291;DHT22;9271;48.590;8.866;2022-07-01T04:49:04;17.00;99.90
18291;DHT22;9271;48.590;8.866;2022-07-01T04:51:30;16.60;99.90
18291;DHT22;9271;48.590;8.866;2022-07-01T04:54:00;16.30;99.90
18291;DHT22;9271;48.590;8.866;2022-07-01T04:56:28;16.50;99.90
18291;DHT22;9271;48.590;8.866;2022-07-01T04:58:55;16.70;99.90
18291;DHT22;9271;48.590;8.866;2022-07-01T05:01:22;16.80;99.90
18291;DHT22;9271;48.590;8.866;2022-07-01T05:03:49;16.80;99.90
18291;DHT22;9271;48.590;8.866;2022-07-01T05:06:15;16.80;99.90
18291;DHT22;9271;48.590;8.866;2022-07-01T05:08:42;16.70;99.90
18291;DHT22;9271;48.590;8.866;2022-07-01T05:11:09;16.80;99.90
18291;DHT22;9271;48.590;8.866;2022-07-01T05:13:38;16.70;99.90
18291;DHT22;9271;48.590;8.866;2022-07-01T05:16:05;16.70;99.90
18291;DHT22;9271;48.590;8.866;2022-07-01T05:18:34;16.60;99.90
18291;DHT22;9271;48.590;8.866;2022-07-01T05:21:18;16.70;99.90
18291;DHT22;9271;48.590;8.866;2022-07-01T05:24:03;16.90;99.90
18291;DHT22;9271;48.590;8.866;2022-07-01T05:26:30;17.00;99.90
18291;DHT22;9271;48.590;8.866;2022-07-01T05:28:58;17.10;99.90
18291;DHT22;9271;48.590;8.866;2022-07-01T05:31:25;16.90;99.90
18291;DHT22;9271;48.590;8.866;2022-07-01T05:33:52;16.80;99.90
18291;DHT22;9271;48.590;8.866;2022-07-01T05:36:20;16.60;99.90
18291;DHT22;9271;48.590;8.866;2022-07-01T05:38:46;16.60;99.90
18291;DHT22;9271;48.590;8.866;2022-07-01T05:41:13;16.50;99.90
18291;DHT22;9271;48.590;8.866;2022-07-01T05:43:41;16.50;99.90
18291;DHT22;9271;48.590;8.866;2022-07-01T05:46:09;16.40;99.90
18291;DHT22;9271;48.590;8.866;2022-07-01T05:48:36;16.50;99.90
18291;DHT22;9271;48.590;8.866;2022-07-01T05:51:03;16.60;99.90
18291;DHT22;9271;48.590;8.866;2022-07-01T05:53:30;16.60;99.90
18291;DHT22;9271;48.590;8.866;2022-07-01T05:55:57;15.80;99.90
18291;DHT22;9271;48.590;8.866;2022-07-01T05:58:23;15.80;99.90
18291;DHT22;9271;48.590;8.866;2022-07-01T06:00:50;15.90;99.90
18291;DHT22;9271;48.590;8.866;2022-07-01T06:03:18;16.30;99.90
18291;DHT22;9271;48.590;8.866;2022-07-01T06:05:45;16.60;99.90
18291;DHT22;9271;48.590;8.866;2022-07-01T06:08:12;16.80;99.90
18291;DHT22;9271;48.590;8.866;2022-07-01T06:10:39;16.80;99.90
18291;DHT22;9271;48.590;8.866;2022-07-01T06:13:05;16.80;99.90
18291;DHT22;9271;48.590;8.866;2022-07-01T06:15:33;16.70;99.90
18291;DHT22;9271;48.590;8.866;2022-07-01T06:18:00;16.60;99.90
18291;DHT22;9271;48.590;8.866;2022-07-01T06:20:28;16.70;99.90
18291;DHT22;9271;48.590;8.866;2022-07-01T06:22:55;16.70;99.90
18291;DHT22;9271;48.590;8.866;2022-07-01T06:25:23;16.70;99.90
18291;DHT22;9271;48.590;8.866;2022-07-01T06:27:51;16.70;99.90
18291;DHT22;9271;48.590;8.866;2022-07-01T06:30:19;16.60;99.90
18291;DHT22;9271;48.590;8.866;2022-07-01T06:32:46;16.80;99.90
18291;DHT22;9271;48.590;8.866;2022-07-01T06:35:13;16.90;99.90
18291;DHT22;9271;48.590;8.866;2022-07-01T06:37:41;17.10;99.90
18291;DHT22;9271;48.590;8.866;2022-07-01T06:40:08;17.10;99.90
18291;DHT22;9271;48.590;8.866;2022-07-01T06:42:35;17.20;99.90
18291;DHT22;9271;48.590;8.866;2022-07-01T06:45:03;17.20;99.90
18291;DHT22;9271;48.590;8.866;2022-07-01T06:47:30;17.20;99.90
18291;DHT22;9271;48.590;8.866;2022-07-01T06:49:57;17.20;99.90
18291;DHT22;9271;48.590;8.866;2022-07-01T06:52:24;17.30;99.90
18291;DHT22;9271;48.590;8.866;2022-07-01T06:54:53;17.40;99.90
18291;DHT22;9271;48.590;8.866;2022-07-01T06:57:20;17.20;99.90
18291;DHT22;9271;48.590;8.866;2022-07-01T06:59:47;17.30;99.90
18291;DHT22;9271;48.590;8.866;2022-07-01T07:02:15;17.20;99.90
18291;DHT22;9271;48.590;8.866;2022-07-01T07:04:42;17.30;99.90
18291;DHT22;9271;48.590;8.866;2022-07-01T07:07:09;17.20;99.90
18291;DHT22;9271;48.590;8.866;2022-07-01T07:09:36;17.20;99.90
18291;DHT22;9271;48.590;8.866;2022-07-01T07:12:05;17.10;99.90
18291;DHT22;9271;48.590;8.866;2022-07-01T07:14:32;17.10;99.90
18291;DHT22;9271;48.590;8.866;2022-07-01T07:16:59;17.20;99.90
18291;DHT22;9271;48.590;8.866;2022-07-01T07:19:26;17.30;99.90
18291;DHT22;9271;48.590;8.866;2022-07-01T07:21:52;17.00;99.90
18291;DHT22;9271;48.590;8.866;2022-07-01T07:24:21;16.80;99.90
18291;DHT22;9271;48.590;8.866;2022-07-01T07:26:48;16.80;99.90
18291;DHT22;9271;48.590;8.866;2022-07-01T07:29:16;16.90;99.90
18291;DHT22;9271;48.590;8.866;2022-07-01T07:31:43;17.10;99.90
18291;DHT22;9271;48.590;8.866;2022-07-01T07:34:10;17.10;99.90
18291;DHT22;9271;48.590;8.866;2022-07-01T07:36:37;17.20;99.90
18291;DHT22;9271;48.590;8.866;2022-07-01T07:39:03;17.20;99.90
18291;DHT22;9271;48.590;8.866;2022-07-01T07:41:30;17.40;99.90
18291;DHT22;9271;48.590;8.866;2022-07-01T07:43:58;17.60;99.90
18291;DHT22;9271;48.590;8.866;2022-07-01T07:46:27;17.60;99.90
18291;DHT22;9271;48.590;8.866;2022-07-01T07:48:55;17.50;99.90
18291;DHT22;9271;48.590;8.866;2022-07-01T07:51:22;17.40;99.90
18291;DHT22;9271;48.590;8.866;2022-07-01T07:53:50;17.50;99.90
18291;DHT22;9271;48.590;8.866;2022-07-01T07:56:17;17.30;99.90
18291;DHT22;9271;48.590;8.866;2022-07-01T07:58:44;17.40;99.90
18291;DHT22;9271;48.590;8.866;2022-07-01T08:01:11;17.40;99.90
18291;DHT22;9271;48.590;8.866;2022-07-01T08:03:39;17.40;99.90
18291;DHT22;9271;48.590;8.866;2022-07-01T08:06:06;17.40;99.90
18291;DHT22;9271;48.590;8.866;2022-07-01T08:08:33;17.30;99.90
18291;DHT22;9271;48.590;8.866;2022-07-01T08:11:00;17.20;99.90
18291;DHT22;9271;48.590;8.866;2022-07-01T08:13:28;17.30;99.90
18291;DHT22;9271;48.590;8.866;2022-07-01T08:15:55;17.30;99.90
18291;DHT22;9271;48.590;8.866;2022-07-01T08:18:22;17.40;99.90
18291;DHT22;9271;48.590;8.866;2022-07-01T08:20:50;17.40;99.90
18291;DHT22;9271;48.590;8.866;2022-07-01T08:23:18;17.50;99.90
18291;DHT22;9271;48.590;8.866;2022-07-01T08:25:46;17.50;99.90
18291;DHT22;9271;48.590;8.866;2022-07-01T08:28:13;17.60;99.90
18291;DHT22;9271;48.590;8.866;2022-07-01T08:30:40;17.40;99.90
18291;DHT22;9271;48.590;8.866;2022-07-01T08:33:07;17.30;99.90
18291;DHT22;9271;48.590;8.866;2022-07-01T08:35:33;17.20;99.90
18291;DHT22;9271;48.590;8.866;2022-07-01T08:38:02;17.00;99.90
18291;DHT22;9271;48.590;8.866;2022-07-01T08:40:30;17.10;99.90
18291;DHT22;9271;48.590;8.866;2022-07-01T08:42:57;17.20;99.90
18291;DHT22;9271;48.590;8.866;2022-07-01T08:45:25;17.40;99.90
18291;DHT22;9271;48.590;8.866;2022-07-01T08:47:54;17.50;99.90
18291;DHT22;9271;48.590;8.866;2022-07-01T08:50:23;17.10;99.90
18291;DHT22;9271;48.590;8.866;2022-07-01T08:52:51;16.80;99.90
18291;DHT22;9271;48.590;8.866;2022-07-01T08:55:19;17.00;99.90
18291;DHT22;9271;48.590;8.866;2022-07-01T08:57:46;16.90;99.90
18291;DHT22;9271;48.590;8.866;2022-07-01T09:00:14;17.10;99.90
18291;DHT22;9271;48.590;8.866;2022-07-01T09:02:53;17.20;99.90
18291;DHT22;9271;48.590;8.866;2022-07-01T09:05:20;17.40;99.90
18291;DHT22;9271;48.590;8.866;2022-07-01T09:07:48;17.60;99.90
18291;DHT22;9271;48.590;8.866;2022-07-01T09:10:17;17.50;99.90
18291;DHT22;9271;48.590;8.866;2022-07-01T09:12:46;17.60;99.90
18291;DHT22;9271;48.590;8.866;2022-07-01T09:15:21;17.40;99.90
18291;DHT22;9271;48.590;8.866;2022-07-01T09:17:51;17.20;99.90
18291;DHT22;9271;48.590;8.866;2022-07-01T09:20:24;17.00;99.90
18291;DHT22;9271;48.590;8.866;2022-07-01T09:23:02;16.90;99.90
18291;DHT22;9271;48.590;8.866;2022-07-01T09:25:31;17.20;99.90
18291;DHT22;9271;48.590;8.866;2022-07-01T09:28:08;17.40;99.90
18291;DHT22;9271;48.590;8.866;2022-07-01T09:30:37;17.50;99.90
18291;DHT22;9271;48.590;8.866;2022-07-01T09:33:12;17.80;99.90
18291;DHT22;9271;48.590;8.866;2022-07-01T09:35:40;17.50;99.90
18291;DHT22;9271;48.590;8.866;2022-07-01T09:38:10;17.50;99.90
18291;DHT22;9271;48.590;8.866;2022-07-01T09:40:54;17.70;99.90
18291;DHT22;9271;48.590;8.866;2022-07-01T09:43:24;17.80;99.90
18291;DHT22;9271;48.590;8.866;2022-07-01T09:45:54;17.90;99.90
18291;DHT22;9271;48.590;8.866;2022-07-01T09:48:21;18.20;99.90
18291;DHT22;9271;48.590;8.866;2022-07-01T09:50:48;18.10;99.90
18291;DHT22;9271;48.590;8.866;2022-07-01T09:53:15;18.30;99.90
18291;DHT22;9271;48.590;8.866;2022-07-01T09:55:42;18.30;99.90
18291;DHT22;9271;48.590;8.866;2022-07-01T09:58:09;18.20;99.90
18291;DHT22;9271;48.590;8.866;2022-07-01T10:00:38;18.40;99.90
18291;DHT22;9271;48.590;8.866;2022-07-01T10:03:05;18.50;99.90
18291;DHT22;9271;48.590;8.866;2022-07-01T10:05:37;18.10;99.90
18291;DHT22;9271;48.590;8.866;2022-07-01T10:11:11;18.40;99.90
18291;DHT22;9271;48.590;8.866;2022-07-01T10:13:43;19.00;99.90
18291;DHT22;9271;48.590;8.866;2022-07-01T10:16:12;19.70;99.90
18291;DHT22;9271;48.590;8.866;2022-07-01T10:18:40;20.10;98.20
18291;DHT22;9271;48.590;8.866;2022-07-01T10:21:07;20.20;97.30
18291;DHT22;9271;48.590;8.866;2022-07-01T10:23:39;20.30;97.50
18291;DHT22;9271;48.590;8.866;2022-07-01T10:26:07;20.00;96.40
18291;DHT22;9271;48.590;8.866;2022-07-01T10:28:43;19.50;98.00
18291;DHT22;9271;48.590;8.866;2022-07-01T10:31:15;20.10;97.70
18291;DHT22;9271;48.590;8.866;2022-07-01T10:33:45;21.10;95.90
18291;DHT22;9271;48.590;8.866;2022-07-01T10:36:15;22.10;95.30
18291;DHT22;9271;48.590;8.866;2022-07-01T10:39:09;22.10;91.90
18291;DHT22;9271;48.590;8.866;2022-07-01T10:41:38;22.20;92.90
18291;DHT22;9271;48.590;8.866;2022-07-01T10:44:07;22.10;91.80
18291;DHT22;9271;48.590;8.866;2022-07-01T10:46:40;21.70;92.20
18291;DHT22;9271;48.590;8.866;2022-07-01T10:49:10;22.00;92.20
18291;DHT22;9271;48.590;8.866;2022-07-01T10:51:48;22.70;90.80
18291;DHT22;9271;48.590;8.866;2022-07-01T10:54:48;23.10;88.70
18291;DHT22;9271;48.590;8.866;2022-07-01T10:57:51;22.70;90.50
18291;DHT22;9271;48.590;8.866;2022-07-01T11:00:31;22.70;90.00
18291;DHT22;9271;48.590;8.866;2022-07-01T11:03:15;22.80;89.10
18291;DHT22;9271;48.590;8.866;2022-07-01T11:05:43;22.60;90.10
18291;DHT22;9271;48.590;8.866;2022-07-01T11:08:10;22.40;89.80
18291;DHT22;9271;48.590;8.866;2022-07-01T11:10:39;21.10;89.00
18291;DHT22;9271;48.590;8.866;2022-07-01T11:13:06;21.20;90.80
18291;DHT22;9271;48.590;8.866;2022-07-01T11:15:33;21.10;90.30
18291;DHT22;9271;48.590;8.866;2022-07-01T11:18:01;20.80;92.20
18291;DHT22;9271;48.590;8.866;2022-07-01T11:20:31;21.30;93.50
18291;DHT22;9271;48.590;8.866;2022-07-01T11:22:59;22.10;91.00
18291;DHT22;9271;48.590;8.866;2022-07-01T11:25:26;22.40;90.10
18291;DHT22;9271;48.590;8.866;2022-07-01T11:27:54;22.70;90.10
18291;DHT22;9271;48.590;8.866;2022-07-01T11:30:21;23.00;91.10
18291;DHT22;9271;48.590;8.866;2022-07-01T11:32:50;22.80;88.50
18291;DHT22;9271;48.590;8.866;2022-07-01T11:35:19;22.70;88.90
18291;DHT22;9271;48.590;8.866;2022-07-01T11:38:11;22.40;89.20
18291;DHT22;9271;48.590;8.866;2022-07-01T11:40:56;22.40;87.40
18291;DHT22;9271;48.590;8.866;2022-07-01T11:43:25;23.00;88.20
18291;DHT22;9271;48.590;8.866;2022-07-01T11:45:54;23.30;86.60
18291;DHT22;9271;48.590;8.866;2022-07-01T11:48:32;23.40;87.90
18291;DHT22;9271;48.590;8.866;2022-07-01T11:51:00;22.60;83.10
18291;DHT22;9271;48.590;8.866;2022-07-01T11:53:29;22.10;88.90
18291;DHT22;9271;48.590;8.866;2022-07-01T11:55:56;22.50;89.60
18291;DHT22;9271;48.590;8.866;2022-07-01T11:58:24;21.60;86.90
18291;DHT22;9271;48.590;8.866;2022-07-01T12:01:06;21.50;89.30
18291;DHT22;9271;48.590;8.866;2022-07-01T12:03:34;21.70;92.30
18291;DHT22;9271;48.590;8.866;2022-07-01T12:06:01;21.70;91.00
18291;DHT22;9271;48.590;8.866;2022-07-01T12:08:30;21.70;88.80
18291;DHT22;9271;48.590;8.866;2022-07-01T12:10:57;21.80;91.80
18291;DHT22;9271;48.590;8.866;2022-07-01T12:13:26;21.80;88.80
18291;DHT22;9271;48.590;8.866;2022-07-01T12:15:53;21.30;90.20
18291;DHT22;9271;48.590;8.866;2022-07-01T12:18:21;21.60;88.30
18291;DHT22;9271;48.590;8.866;2022-07-01T12:20:52;22.00;90.40
18291;DHT22;9271;48.590;8.866;2022-07-01T12:23:20;22.40;91.60
18291;DHT22;9271;48.590;8.866;2022-07-01T12:25:50;22.50;86.30
18291;DHT22;9271;48.590;8.866;2022-07-01T12:28:29;22.30;86.50
18291;DHT22;9271;48.590;8.866;2022-07-01T12:31:04;21.30;87.00
18291;DHT22;9271;48.590;8.866;2022-07-01T12:33:34;20.80;89.80
18291;DHT22;9271;48.590;8.866;2022-07-01T12:36:03;21.30;88.30
18291;DHT22;9271;48.590;8.866;2022-07-01T12:38:31;21.90;90.60
18291;DHT22;9271;48.590;8.866;2022-07-01T12:41:00;22.60;87.10
18291;DHT22;9271;48.590;8.866;2022-07-01T12:43:28;23.10;84.20
18291;DHT22;9271;48.590;8.866;2022-07-01T12:45:57;22.30;86.50
18291;DHT22;9271;48.590;8.866;2022-07-01T12:48:24;22.20;85.80
18291;DHT22;9271;48.590;8.866;2022-07-01T12:50:53;22.30;85.20
18291;DHT22;9271;48.590;8.866;2022-07-01T12:53:21;21.40;86.10
18291;DHT22;9271;48.590;8.866;2022-07-01T12:55:50;21.30;87.60
18291;DHT22;9271;48.590;8.866;2022-07-01T12:58:20;22.10;87.30
18291;DHT22;9271;48.590;8.866;2022-07-01T13:00:49;22.70;86.10
18291;DHT22;9271;48.590;8.866;2022-07-01T13:03:20;22.90;84.60
18291;DHT22;9271;48.590;8.866;2022-07-01T13:05:48;23.70;84.10
18291;DHT22;9271;48.590;8.866;2022-07-01T13:08:15;24.20;80.40
18291;DHT22;9271;48.590;8.866;2022-07-01T13:10:43;24.90;80.10
18291;DHT22;9271;48.590;8.866;2022-07-01T13:13:11;25.80;76.30
18291;DHT22;9271;48.590;8.866;2022-07-01T13:15:39;25.90;73.90
18291;DHT22;9271;48.590;8.866;2022-07-01T13:18:07;26.00;75.50
18291;DHT22;9271;48.590;8.866;2022-07-01T13:20:35;25.50;77.20
18291;DHT22;9271;48.590;8.866;2022-07-01T13:23:03;25.90;77.20
18291;DHT22;9271;48.590;8.866;2022-07-01T13:25:30;25.50;76.70
18291;DHT22;9271;48.590;8.866;2022-07-01T13:27:57;24.80;78.70
18291;DHT22;9271;48.590;8.866;2022-07-01T13:30:24;25.20;80.40
18291;DHT22;9271;48.590;8.866;2022-07-01T13:32:52;25.90;76.10
18291;DHT22;9271;48.590;8.866;2022-07-01T13:35:20;26.70;76.70
18291;DHT22;9271;48.590;8.866;2022-07-01T13:37:48;28.80;69.90
18291;DHT22;9271;48.590;8.866;2022-07-01T13:40:15;30.10;61.60
18291;DHT22;9271;48.590;8.866;2022-07-01T13:42:45;30.40;61.30
18291;DHT22;9271;48.590;8.866;2022-07-01T13:45:12;30.60;58.20
18291;DHT22;9271;48.590;8.866;2022-07-01T13:47:40;30.00;62.20
18291;DHT22;9271;48.590;8.866;2022-07-01T13:50:09;28.50;62.60
18291;DHT22;9271;48.590;8.866;2022-07-01T13:52:38;25.90;68.40
18291;DHT22;9271;48.590;8.866;2022-07-01T13:55:06;25.10;69.60
18291;DHT22;9271;48.590;8.866;2022-07-01T13:57:33;25.80;71.70
18291;DHT22;9271;48.590;8.866;2022-07-01T14:00:01;28.00;67.60
18291;DHT22;9271;48.590;8.866;2022-07-01T14:02:28;29.00;60.50
18291;DHT22;9271;48.590;8.866;2022-07-01T14:04:55;28.20;59.60
18291;DHT22;9271;48.590;8.866;2022-07-01T14:07:24;27.80;60.90
18291;DHT22;9271;48.590;8.866;2022-07-01T14:09:51;27.60;63.10
18291;DHT22;9271;48.590;8.866;2022-07-01T14:12:18;26.40;64.20
18291;DHT22;9271;48.590;8.866;2022-07-01T14:14:45;25.30;65.70
18291;DHT22;9271;48.590;8.866;2022-07-01T14:17:13;25.80;70.40
18291;DHT22;9271;48.590;8.866;2022-07-01T14:19:40;26.80;69.30
18291;DHT22;9271;48.590;8.866;2022-07-01T14:22:08;27.20;64.20
18291;DHT22;9271;48.590;8.866;2022-07-01T14:24:37;26.80;63.30
18291;DHT22;9271;48.590;8.866;2022-07-01T14:27:04;25.60;65.30
18291;DHT22;9271;48.590;8.866;2022-07-01T14:29:31;25.80;69.50
18291;DHT22;9271;48.590;8.866;2022-07-01T14:31:58;27.00;64.20
18291;DHT22;9271;48.590;8.866;2022-07-01T14:34:26;27.60;66.00
18291;DHT22;9271;48.590;8.866;2022-07-01T14:36:53;27.90;60.50
18291;DHT22;9271;48.590;8.866;2022-07-01T14:39:20;28.20;60.00
18291;DHT22;9271;48.590;8.866;2022-07-01T14:41:48;29.40;59.20
18291;DHT22;9271;48.590;8.866;2022-07-01T14:44:16;29.60;57.40
18291;DHT22;9271;48.590;8.866;2022-07-01T14:46:44;29.50;57.50
18291;DHT22;9271;48.590;8.866;2022-07-01T14:49:11;30.00;60.10
18291;DHT22;9271;48.590;8.866;2022-07-01T14:51:40;30.30;54.50
18291;DHT22;9271;48.590;8.866;2022-07-01T14:54:07;25.80;61.40
18291;DHT22;9271;48.590;8.866;2022-07-01T14:56:33;25.90;61.70
18291;DHT22;9271;48.590;8.866;2022-07-01T14:59:02;26.90;61.30
18291;DHT22;9271;48.590;8.866;2022-07-01T15:01:29;27.70;61.10
18291;DHT22;9271;48.590;8.866;2022-07-01T15:03:56;27.40;59.30
18291;DHT22;9271;48.590;8.866;2022-07-01T15:06:24;26.60;70.70
18291;DHT22;9271;48.590;8.866;2022-07-01T15:08:50;25.10;65.20
18291;DHT22;9271;48.590;8.866;2022-07-01T15:11:17;24.40;68.60
18291;DHT22;9271;48.590;8.866;2022-07-01T15:13:45;24.10;68.90
18291;DHT22;9271;48.590;8.866;2022-07-01T15:16:13;24.60;67.00
18291;DHT22;9271;48.590;8.866;2022-07-01T15:18:41;24.80;65.80
18291;DHT22;9271;48.590;8.866;2022-07-01T15:21:09;25.10;69.20
18291;DHT22;9271;48.590;8.866;2022-07-01T15:23:36;25.30;66.40
18291;DHT22;9271;48.590;8.866;2022-07-01T15:26:04;25.00;63.20
18291;DHT22;9271;48.590;8.866;2022-07-01T15:28:31;24.60;65.30
18291;DHT22;9271;48.590;8.866;2022-07-01T15:30:59;24.60;66.00
18291;DHT22;9271;48.590;8.866;2022-07-01T15:33:28;24.60;67.40
18291;DHT22;9271;48.590;8.866;2022-07-01T15:35:56;24.10;66.40
18291;DHT22;9271;48.590;8.866;2022-07-01T15:38:24;24.00;66.60
18291;DHT22;9271;48.590;8.866;2022-07-01T15:40:53;24.00;68.70
18291;DHT22;9271;48.590;8.866;2022-07-01T15:43:21;24.10;70.40
18291;DHT22;9271;48.590;8.866;2022-07-01T15:45:49;24.10;66.30
18291;DHT22;9271;48.590;8.866;2022-07-01T15:48:17;24.50;65.70
18291;DHT22;9271;48.590;8.866;2022-07-01T15:50:46;23.70;67.60
18291;DHT22;9271;48.590;8.866;2022-07-01T15:53:16;23.20;68.50
18291;DHT22;9271;48.590;8.866;2022-07-01T15:55:44;23.00;70.10